Time;durP1;ratioP1;P1;durP2;ratioP2;P2;SDS_P1;SDS_P2;PMS_P1;PMS_P2;Temp;Humidity;BMP_temperature;BMP_pressure;BME280_temperature;BME280_humidity;BME280_pressure;Samples;Min_cycle;Max_cycle;Signal;HPM_P1;HPM_P2
2022/07/08 00:01:28;;;;;;;10.77;1.00;;;;;;;24.25;38.19;102759.16;5005795;28;20074;-64
2022/07/08 00:03:53;;;;;;;5.22;1.58;;;;;;;24.24;38.35;102762.94;5004272;28;20113;-64
2022/07/08 00:06:19;;;;;;;5.00;1.20;;;;;;;24.21;37.79;102757.78;5004951;28;20037;-64
2022/07/08 00:08:44;;;;;;;9.10;1.20;;;;;;;24.21;38.25;102760.53;5004192;28;20387;-64
2022/07/08 00:11:10;;;;;;;4.43;1.05;;;;;;;24.17;37.90;102762.78;4988089;28;20084;-63
2022/07/08 00:13:36;;;;;;;9.43;1.05;;;;;;;24.14;37.70;102756.78;5004322;28;20399;-64
2022/07/08 00:16:02;;;;;;;3.38;1.05;;;;;;;24.11;37.68;102763.44;5002741;28;20030;-64
2022/07/08 00:18:27;;;;;;;7.70;1.88;;;;;;;24.06;38.29;102751.25;5004658;28;20097;-64
2022/07/08 00:20:52;;;;;;;4.75;1.08;;;;;;;24.07;37.48;102766.66;4987326;28;20057;-64
2022/07/08 00:23:18;;;;;;;7.35;1.05;;;;;;;24.08;38.26;102773.84;5003028;28;20058;-64
2022/07/08 00:25:43;;;;;;;3.63;1.08;;;;;;;24.04;38.37;102766.97;5008178;28;20030;-64
2022/07/08 00:28:08;;;;;;;2.35;1.30;;;;;;;24.03;37.71;102760.69;5014702;28;20040;-64
2022/07/08 00:30:34;;;;;;;4.30;0.88;;;;;;;24.01;37.47;102775.56;5015662;28;20460;-64
2022/07/08 00:32:59;;;;;;;4.00;1.05;;;;;;;24.01;38.22;102772.84;5015739;28;20030;-64
2022/07/08 00:35:25;;;;;;;3.17;0.95;;;;;;;23.98;37.81;102773.16;5015761;28;20442;-64
2022/07/08 00:37:50;;;;;;;4.78;0.70;;;;;;;23.98;38.29;102767.69;5015871;28;20045;-64
2022/07/08 00:40:16;;;;;;;3.92;1.00;;;;;;;23.96;38.08;102770.59;4998217;28;20026;-64
2022/07/08 00:42:41;;;;;;;4.32;0.98;;;;;;;23.94;38.76;102766.31;4998044;28;20472;-64
2022/07/08 00:45:07;;;;;;;5.57;2.17;;;;;;;23.94;37.98;102767.16;5014478;28;20061;-64
2022/07/08 00:47:32;;;;;;;1.35;1.20;;;;;;;23.89;38.46;102753.13;5014258;28;20507;-64
2022/07/08 00:49:57;;;;;;;6.82;1.77;;;;;;;23.90;38.19;102764.94;4997861;28;20369;-64
2022/07/08 00:52:24;;;;;;;5.00;0.80;;;;;;;23.89;38.43;102774.19;5014376;28;20030;-64
2022/07/08 00:54:49;;;;;;;7.95;1.30;;;;;;;23.88;38.89;102766.97;5014312;28;20499;-64
2022/07/08 00:57:15;;;;;;;6.95;1.10;;;;;;;23.85;38.08;102767.31;5014238;28;20033;-64
2022/07/08 00:59:42;;;;;;;4.72;1.00;;;;;;;23.81;38.38;102776.91;5014104;28;20104;-64
2022/07/08 01:02:07;;;;;;;5.18;1.23;;;;;;;23.81;38.13;102776.91;5013514;28;20029;-64
2022/07/08 01:04:34;;;;;;;7.25;1.00;;;;;;;23.78;38.39;102776.19;5014006;28;20101;-64
2022/07/08 01:07:00;;;;;;;5.47;1.05;;;;;;;23.76;38.16;102781.00;5014039;28;20495;-64
2022/07/08 01:09:25;;;;;;;6.45;1.23;;;;;;;23.74;38.26;102774.84;4997562;28;20064;-64
2022/07/08 01:11:50;;;;;;;4.82;1.23;;;;;;;23.73;38.61;102786.78;5015146;28;20030;-64
2022/07/08 01:14:16;;;;;;;7.80;1.52;;;;;;;23.70;38.71;102781.66;4997583;28;20030;-64
2022/07/08 01:16:41;;;;;;;3.70;1.00;;;;;;;23.65;38.53;102775.81;5013971;28;20391;-64
2022/07/08 01:19:07;;;;;;;10.15;1.92;;;;;;;23.65;38.69;102775.81;5013630;28;20104;-64
2022/07/08 01:21:33;;;;;;;8.40;1.33;;;;;;;23.67;39.47;102781.97;4981141;28;20080;-64
2022/07/08 01:23:58;;;;;;;9.32;1.25;;;;;;;23.67;38.54;102781.97;5013716;28;20033;-64
2022/07/08 01:26:24;;;;;;;6.93;1.33;;;;;;;23.66;38.58;102780.28;4997238;28;20030;-64
2022/07/08 01:28:50;;;;;;;4.97;1.27;;;;;;;23.68;39.49;102783.72;4997124;28;20061;-64
2022/07/08 01:31:15;;;;;;;9.45;0.95;;;;;;;23.67;38.59;102781.97;5013611;28;20037;-64
2022/07/08 01:33:40;;;;;;;6.40;0.93;;;;;;;23.67;38.75;102786.63;5013578;28;20057;-64
2022/07/08 01:36:07;;;;;;;9.57;1.40;;;;;;;23.67;39.31;102776.50;5013421;28;20053;-64
2022/07/08 01:38:32;;;;;;;7.38;1.67;;;;;;;23.67;38.85;102781.97;5014841;28;20030;-64
2022/07/08 01:40:58;;;;;;;5.50;1.52;;;;;;;23.64;39.20;102776.88;5013631;28;20088;-64
2022/07/08 01:43:24;;;;;;;8.27;1.05;;;;;;;23.65;39.46;102770.34;5014539;28;20026;-64
2022/07/08 01:45:49;;;;;;;5.40;1.27;;;;;;;23.65;38.52;102773.09;5014593;28;20372;-64
2022/07/08 01:48:15;;;;;;;8.57;1.38;;;;;;;23.62;38.65;102773.41;5013244;28;20033;-64
2022/07/08 01:50:40;;;;;;;10.30;1.33;;;;;;;23.63;39.59;102774.28;5014518;28;20100;-63
2022/07/08 01:53:05;;;;;;;4.15;0.82;;;;;;;23.60;38.95;102770.00;5012960;28;20121;-64
2022/07/08 01:55:31;;;;;;;3.55;1.00;;;;;;;23.58;38.88;102772.06;5013126;28;20030;-64
2022/07/08 01:57:56;;;;;;;2.65;1.30;;;;;;;23.55;38.78;102780.59;5014279;28;20022;-64
2022/07/08 02:00:22;;;;;;;6.20;0.93;;;;;;;23.53;38.74;102779.91;5014189;28;20029;-64
2022/07/08 02:02:47;;;;;;;13.95;2.20;;;;;;;23.48;39.52;102771.31;5013101;28;20402;-64
2022/07/08 02:05:13;;;;;;;6.78;1.48;;;;;;;23.47;39.53;102771.50;4996656;28;20030;-64
2022/07/08 02:07:39;;;;;;;5.15;1.05;;;;;;;23.45;38.81;102782.59;4996511;28;20038;-64
2022/07/08 02:10:05;;;;;;;6.50;1.45;;;;;;;23.44;39.51;102775.44;5012897;28;20021;-64
2022/07/08 02:12:31;;;;;;;3.97;1.10;;;;;;;23.40;39.05;102774.03;4995749;28;20033;-64
2022/07/08 02:15:04;;;;;;;10.13;1.17;;;;;;;23.39;39.96;102772.34;5012817;28;20553;-64
2022/07/08 02:17:40;;;;;;;5.63;1.08;;;;;;;23.37;39.45;102782.53;5014117;28;20036;-64
2022/07/08 02:20:08;;;;;;;4.20;1.08;;;;;;;23.34;39.81;102773.84;4996334;28;20112;-64
2022/07/08 02:22:34;;;;;;;4.15;1.45;;;;;;;23.31;39.41;102764.03;5012489;28;20034;-64
2022/07/08 02:24:59;;;;;;;9.10;1.25;;;;;;;23.32;39.67;102776.72;4996034;28;20072;-64
2022/07/08 02:27:24;;;;;;;5.25;1.92;;;;;;;23.30;40.14;102778.75;5013732;28;20076;-64
2022/07/08 02:29:50;;;;;;;6.20;1.42;;;;;;;23.27;39.28;102770.03;5012483;28;20352;-64
2022/07/08 02:32:15;;;;;;;4.20;1.00;;;;;;;23.27;39.18;102773.63;4996103;28;20029;-64
2022/07/08 02:34:41;;;;;;;5.28;1.20;;;;;;;23.24;39.81;102768.47;5012441;28;20124;-64
2022/07/08 02:37:06;;;;;;;3.75;1.35;;;;;;;23.21;39.62;102774.28;5013626;28;20034;-64
2022/07/08 02:39:31;;;;;;;3.40;1.20;;;;;;;23.19;39.43;102787.25;5012622;28;20026;-64
2022/07/08 02:41:57;;;;;;;4.32;1.05;;;;;;;23.14;39.38;102784.16;5012415;28;20030;-64
2022/07/08 02:44:22;;;;;;;3.20;1.08;;;;;;;23.11;39.75;102784.50;4996028;28;20120;-64
2022/07/08 02:46:48;;;;;;;9.77;0.98;;;;;;;23.08;39.85;102779.34;5012328;28;20025;-64
2022/07/08 02:49:14;;;;;;;9.50;3.08;;;;;;;23.02;40.47;102780.88;5013599;28;20025;-64
2022/07/08 02:51:39;;;;;;;7.93;1.02;;;;;;;22.99;39.86;102785.78;5012244;28;20029;-64
2022/07/08 02:54:05;;;;;;;7.40;1.10;;;;;;;22.94;39.82;102782.69;5012355;28;20026;-64
2022/07/08 02:56:34;;;;;;;5.63;1.02;;;;;;;22.88;40.25;102783.34;4995989;28;20026;-64
2022/07/08 02:59:00;;;;;;;2.80;0.75;;;;;;;22.83;40.28;102785.69;4995877;28;20360;-64
2022/07/08 03:01:26;;;;;;;4.03;1.08;;;;;;;22.80;40.65;102781.41;5012294;28;20045;-64
2022/07/08 03:03:51;;;;;;;2.45;0.80;;;;;;;22.71;39.88;102782.38;5012375;28;20103;-64
2022/07/08 03:06:17;;;;;;;9.27;1.83;;;;;;;22.64;40.64;102777.72;4995810;28;20068;-64
2022/07/08 03:08:42;;;;;;;3.70;0.93;;;;;;;22.51;40.32;102776.22;5012049;28;20026;-64
2022/07/08 03:11:08;;;;;;;3.00;1.27;;;;;;;22.41;40.08;102783.66;4995713;28;20026;-64
2022/07/08 03:13:35;;;;;;;7.57;0.93;;;;;;;22.33;39.85;102793.66;4996089;28;20495;-64
2022/07/08 03:16:01;;;;;;;3.67;1.05;;;;;;;22.23;39.87;102781.97;4996040;28;20484;-63
2022/07/08 03:18:26;;;;;;;3.90;1.42;;;;;;;22.08;40.81;102784.41;5012116;28;20060;-64
2022/07/08 03:20:52;;;;;;;4.57;1.30;;;;;;;22.03;40.80;102797.66;5013233;28;20022;-64
2022/07/08 03:23:17;;;;;;;5.97;1.15;;;;;;;21.95;40.38;102797.56;5012111;28;20528;-64
2022/07/08 03:25:42;;;;;;;4.97;1.10;;;;;;;21.92;40.68;102800.59;5015917;28;20090;-64
2022/07/08 03:28:08;;;;;;;5.85;1.27;;;;;;;21.84;40.81;102795.03;4999330;28;20026;-64
2022/07/08 03:30:33;;;;;;;7.10;1.20;;;;;;;21.80;40.79;102793.63;5015619;28;20050;-64
2022/07/08 03:32:59;;;;;;;3.60;1.27;;;;;;;21.75;40.30;102790.50;5017010;28;20034;-64
2022/07/08 03:35:24;;;;;;;6.38;1.17;;;;;;;21.69;40.84;102788.41;5015665;28;20448;-64
2022/07/08 03:37:49;;;;;;;2.30;0.88;;;;;;;21.63;40.34;102797.19;5015765;28;20030;-64
2022/07/08 03:43:03;;;;;;;5.28;0.80;;;;;;;21.54;41.14;102806.28;4997355;28;20042;-64
2022/07/08 03:45:29;;;;;;;7.78;1.25;;;;;;;21.50;40.66;102808.44;5015600;28;20028;-63
2022/07/08 03:47:56;;;;;;;2.90;1.75;;;;;;;21.47;41.12;102806.91;5015602;28;20028;-64
2022/07/08 03:50:22;;;;;;;7.00;2.13;;;;;;;21.48;41.49;102805.03;4999210;28;20104;-64
2022/07/08 03:52:47;;;;;;;4.55;1.20;;;;;;;21.46;40.92;102804.34;4998927;28;20458;-64
2022/07/08 03:55:13;;;;;;;2.47;0.98;;;;;;;21.45;41.44;102813.50;4999011;28;20030;-63
2022/07/08 03:57:39;;;;;;;10.18;1.40;;;;;;;21.44;41.54;102811.78;5015337;28;20387;-64
2022/07/08 04:00:07;;;;;;;5.97;1.42;;;;;;;21.39;41.08;102814.97;5015277;28;20484;-64
2022/07/08 04:02:33;;;;;;;4.65;2.13;;;;;;;21.36;41.40;102818.00;5015258;28;20104;-63
2022/07/08 04:04:58;;;;;;;4.20;1.00;;;;;;;21.37;41.49;102821.59;5015113;28;20103;-63
2022/07/08 04:07:24;;;;;;;6.65;1.20;;;;;;;21.37;41.80;102811.56;5015150;28;20116;-63
2022/07/08 04:09:49;;;;;;;9.65;1.73;;;;;;;21.40;41.65;102813.97;5015108;28;20049;-63
2022/07/08 04:12:14;;;;;;;6.82;1.10;;;;;;;21.43;41.44;102816.41;5016358;28;20115;-63
2022/07/08 04:14:40;;;;;;;5.55;1.38;;;;;;;21.54;42.45;102819.94;4998648;28;20030;-63
2022/07/08 04:17:05;;;;;;;5.72;1.83;;;;;;;21.60;41.52;102824.78;4998781;28;20042;-63
2022/07/08 04:19:30;;;;;;;3.95;1.60;;;;;;;21.67;41.75;102817.69;5016032;28;20033;-63
2022/07/08 04:21:56;;;;;;;3.00;1.13;;;;;;;21.76;41.49;102824.97;5014939;28;20443;-63
2022/07/08 04:24:21;;;;;;;7.43;1.65;;;;;;;21.82;41.93;102827.09;5014739;28;20037;-63
2022/07/08 04:26:47;;;;;;;4.38;1.55;;;;;;;21.86;41.75;102828.50;4998471;28;20101;-64
2022/07/08 04:29:12;;;;;;;3.35;1.38;;;;;;;21.96;41.81;102830.19;4982018;28;20048;-64
2022/07/08 04:31:37;;;;;;;3.45;1.05;;;;;;;22.02;42.44;102823.25;5014704;28;20403;-64
2022/07/08 04:34:03;;;;;;;10.18;2.08;;;;;;;22.11;42.26;102822.28;5014662;28;20555;-64
2022/07/08 04:36:28;;;;;;;8.90;1.70;;;;;;;22.21;41.14;102831.28;5013526;28;20030;-64
2022/07/08 04:38:53;;;;;;;3.08;1.48;;;;;;;22.29;41.61;102830.47;5014538;28;20068;-63
2022/07/08 04:41:19;;;;;;;7.18;1.30;;;;;;;22.38;41.34;102832.28;5014432;28;20034;-63
2022/07/08 04:43:44;;;;;;;6.25;1.15;;;;;;;22.45;41.15;102830.63;5015661;28;20053;-63
2022/07/08 04:46:11;;;;;;;7.47;1.75;;;;;;;22.55;41.24;102832.28;5015527;28;20501;-63
2022/07/08 04:48:36;;;;;;;5.65;1.73;;;;;;;22.67;41.37;102834.78;5014118;28;20026;-63
2022/07/08 04:51:02;;;;;;;6.80;1.77;;;;;;;22.75;41.72;102837.56;5014239;28;20079;-63
2022/07/08 04:53:28;;;;;;;8.65;1.83;;;;;;;22.83;40.92;102822.09;5014227;28;20021;-64
2022/07/08 04:55:53;;;;;;;8.95;1.40;;;;;;;22.94;41.06;102820.97;4997880;28;20034;-63
2022/07/08 04:58:18;;;;;;;5.60;1.63;;;;;;;23.03;40.93;102809.06;5014086;28;20083;-63
2022/07/08 05:00:44;;;;;;;6.30;1.65;;;;;;;23.17;40.88;102816.66;4997809;28;20369;-63
2022/07/08 05:03:09;;;;;;;4.13;1.15;;;;;;;23.30;40.44;102817.06;5013999;28;20392;-65
2022/07/08 05:05:34;;;;;;;6.43;2.15;;;;;;;23.43;40.71;102809.28;5014123;28;20096;-64
2022/07/08 05:08:00;;;;;;;6.88;1.65;;;;;;;23.54;40.73;102814.44;5013840;28;20037;-64
2022/07/08 05:10:26;;;;;;;6.25;1.23;;;;;;;23.68;41.04;102816.53;4997744;28;20030;-64
2022/07/08 05:12:52;;;;;;;7.22;1.50;;;;;;;23.77;40.93;102810.09;5013941;28;20030;-64
2022/07/08 05:15:17;;;;;;;6.25;1.48;;;;;;;23.89;40.32;102815.25;5015021;28;20030;-64
2022/07/08 05:17:43;;;;;;;5.15;1.80;;;;;;;24.03;39.72;102822.81;5013809;28;20410;-64
2022/07/08 05:20:09;;;;;;;5.95;1.00;;;;;;;24.10;40.34;102816.50;5014872;28;20033;-64
2022/07/08 05:22:36;;;;;;;12.27;1.55;;;;;;;24.24;39.69;102823.19;5015247;28;20034;-63
2022/07/08 05:25:02;;;;;;;10.40;1.88;;;;;;;24.36;39.23;102829.19;5013618;28;20060;-64
2022/07/08 05:27:28;;;;;;;7.85;1.27;;;;;;;24.48;39.84;102833.31;5014871;28;20052;-64
2022/07/08 05:29:53;;;;;;;9.68;1.25;;;;;;;24.59;39.25;102822.88;5013573;28;20050;-64
2022/07/08 05:32:19;;;;;;;6.97;1.33;;;;;;;24.71;39.46;102824.22;5013903;28;20030;-65
2022/07/08 05:34:44;;;;;;;5.63;1.45;;;;;;;24.84;39.24;102827.34;4997106;28;20065;-66
2022/07/08 05:37:13;;;;;;;7.93;1.27;;;;;;;24.99;39.22;102830.19;5014713;28;20476;-64
2022/07/08 05:39:39;;;;;;;11.52;1.23;;;;;;;25.14;39.10;102828.44;5014053;28;20033;-64
2022/07/08 05:42:09;;;;;;;4.45;1.30;;;;;;;25.28;38.61;102835.09;4997207;28;20041;-64
2022/07/08 05:44:38;;;;;;;7.30;1.17;;;;;;;25.41;38.77;102836.25;4997207;28;20033;-64
2022/07/08 05:47:05;;;;;;;4.38;1.10;;;;;;;25.54;38.45;102841.22;4996699;28;20033;-64
2022/07/08 05:49:30;;;;;;;2.67;0.98;;;;;;;25.66;38.28;102839.75;5013231;28;20018;-64
2022/07/08 05:51:56;;;;;;;8.65;1.38;;;;;;;25.81;38.33;102854.44;5014447;28;20030;-64
2022/07/08 05:54:21;;;;;;;4.78;1.00;;;;;;;25.93;38.12;102858.50;5013298;28;20021;-64
2022/07/08 05:56:47;;;;;;;6.03;1.42;;;;;;;26.05;38.14;102859.78;5014292;28;20029;-64
2022/07/08 05:59:12;;;;;;;5.57;1.52;;;;;;;26.23;37.49;102865.03;5013117;28;20029;-64
2022/07/08 06:01:37;;;;;;;7.20;1.42;;;;;;;26.39;37.57;102869.56;5014497;28;20092;-64
2022/07/08 06:04:03;;;;;;;5.93;1.70;;;;;;;26.55;37.12;102870.28;4996563;28;20398;-64
2022/07/08 06:06:28;;;;;;;4.32;1.88;;;;;;;26.69;37.09;102867.78;5013096;28;20037;-64
2022/07/08 06:08:54;;;;;;;2.30;1.13;;;;;;;26.81;37.29;102869.06;4996341;28;20450;-64
2022/07/08 06:11:19;;;;;;;8.45;1.52;;;;;;;26.94;36.86;102870.13;5012663;28;20037;-64
2022/07/08 06:13:44;;;;;;;5.68;2.17;;;;;;;27.05;37.08;102877.09;5013885;28;20475;-64
2022/07/08 06:16:10;;;;;;;4.53;1.23;;;;;;;27.17;36.48;102881.94;4996207;28;20084;-64
2022/07/08 06:18:35;;;;;;;8.75;1.15;;;;;;;27.29;36.80;102890.59;4996355;28;20057;-64
2022/07/08 06:21:01;;;;;;;4.90;1.13;;;;;;;27.37;36.64;102892.38;5012676;28;20028;-64
2022/07/08 06:23:26;;;;;;;7.28;1.80;;;;;;;27.46;35.63;102892.16;5012574;28;20056;-64
2022/07/08 06:25:51;;;;;;;8.07;1.52;;;;;;;27.61;36.07;102894.91;5012532;28;20057;-64
2022/07/08 06:28:17;;;;;;;6.78;1.58;;;;;;;27.74;35.88;102889.56;4995900;28;20549;-64
2022/07/08 06:30:42;;;;;;;7.18;1.50;;;;;;;27.86;35.06;102890.78;5013773;28;20427;-64
2022/07/08 06:33:08;;;;;;;4.05;1.00;;;;;;;28.00;35.30;102895.38;5012633;28;20025;-65
2022/07/08 06:35:33;;;;;;;3.58;0.95;;;;;;;28.17;34.60;102890.53;5012330;28;20079;-65
2022/07/08 06:37:59;;;;;;;4.57;1.17;;;;;;;28.30;35.33;102888.78;5013687;28;20037;-65
2022/07/08 06:40:25;;;;;;;3.75;1.23;;;;;;;28.47;34.84;102894.91;4995897;28;20377;-66
2022/07/08 06:42:51;;;;;;;4.05;1.00;;;;;;;28.63;34.40;102888.28;4979899;28;20034;-66
2022/07/08 06:45:16;;;;;;;5.78;1.85;;;;;;;28.75;33.87;102893.09;4995862;28;20026;-65
2022/07/08 06:47:42;;;;;;;5.70;1.35;;;;;;;28.90;34.65;102890.22;5012344;28;20026;-65
2022/07/08 06:50:08;;;;;;;4.03;1.08;;;;;;;29.04;34.00;102894.78;5012204;28;20054;-66
2022/07/08 06:52:34;;;;;;;2.30;0.80;;;;;;;29.18;34.15;102893.84;4995901;28;20381;-66
2022/07/08 06:55:00;;;;;;;4.57;1.10;;;;;;;29.31;33.78;102891.19;4995809;28;20022;-66
2022/07/08 06:57:26;;;;;;;6.22;1.10;;;;;;;29.49;33.85;102889.81;4995724;28;20160;-66
2022/07/08 06:59:51;;;;;;;5.47;0.88;;;;;;;29.62;33.50;102887.97;5014735;28;20018;-64
2022/07/08 07:02:17;;;;;;;5.20;0.98;;;;;;;29.80;32.90;102896.59;5016204;28;20037;-64
2022/07/08 07:04:43;;;;;;;3.33;1.00;;;;;;;29.91;32.70;102887.72;5017372;28;20033;-65
2022/07/08 07:07:08;;;;;;;6.00;0.80;;;;;;;30.08;32.67;102892.88;5016180;28;20030;-64
2022/07/08 07:09:35;;;;;;;8.85;0.95;;;;;;;30.25;32.44;102889.53;5015930;28;20025;-65
2022/07/08 07:12:00;;;;;;;14.05;1.00;;;;;;;30.41;32.26;102900.22;4999817;28;20028;-65
2022/07/08 07:14:26;;;;;;;5.70;1.15;;;;;;;30.51;31.90;102888.75;4999939;28;20109;-66
2022/07/08 07:16:51;;;;;;;5.38;0.77;;;;;;;30.63;32.24;102887.06;5017143;28;20037;-66
2022/07/08 07:19:16;;;;;;;5.40;0.90;;;;;;;30.74;31.28;102891.94;4999521;28;20087;-65
2022/07/08 07:21:42;;;;;;;5.45;0.88;;;;;;;30.75;31.34;102890.03;5015886;28;20395;-65
2022/07/08 07:24:07;;;;;;;5.88;1.27;;;;;;;30.95;31.12;102899.25;5015938;28;20376;-65
2022/07/08 07:26:33;;;;;;;7.32;1.25;;;;;;;31.08;30.88;102899.22;5015759;28;20021;-65
2022/07/08 07:28:58;;;;;;;3.40;0.85;;;;;;;31.23;30.66;102890.69;5015717;28;20049;-65
2022/07/08 07:31:23;;;;;;;4.05;1.38;;;;;;;31.36;30.71;102894.28;4999394;28;20042;-65
2022/07/08 07:33:49;;;;;;;4.35;1.05;;;;;;;31.45;30.50;102889.34;5015780;28;20030;-66
2022/07/08 07:36:14;;;;;;;4.10;0.88;;;;;;;31.56;30.57;102889.56;5015603;28;20105;-66
2022/07/08 07:38:40;;;;;;;3.30;1.25;;;;;;;31.70;30.08;102884.81;4999296;28;20034;-66
2022/07/08 07:41:05;;;;;;;5.55;1.45;;;;;;;31.83;30.41;102901.41;5015556;28;20164;-66
2022/07/08 07:43:30;;;;;;;4.90;1.15;;;;;;;31.98;29.62;102903.91;5015627;28;20101;-67
2022/07/08 07:45:56;;;;;;;7.00;0.80;;;;;;;32.18;29.63;102913.00;5015544;28;20030;-66
2022/07/08 07:48:21;;;;;;;6.80;0.98;;;;;;;32.32;30.08;102911.00;5016605;28;20109;-66
2022/07/08 07:50:46;;;;;;;1.90;0.70;;;;;;;32.42;29.14;102897.47;4998953;28;20025;-67
2022/07/08 07:53:12;;;;;;;2.53;0.98;;;;;;;32.51;29.74;102901.69;5015437;28;20033;-67
2022/07/08 07:55:37;;;;;;;6.45;1.20;;;;;;;32.62;29.56;102898.22;5015408;28;20042;-67
2022/07/08 07:58:03;;;;;;;5.15;0.98;;;;;;;32.72;29.58;102904.97;5015278;28;20037;-67
2022/07/08 08:00:28;;;;;;;6.63;1.48;;;;;;;32.83;29.21;102898.69;4982543;28;20018;-66
2022/07/08 08:02:54;;;;;;;2.38;0.90;;;;;;;32.95;28.91;102897.94;4998872;28;20037;-66
2022/07/08 08:05:19;;;;;;;6.30;0.73;;;;;;;33.03;29.10;102904.06;5015161;28;20033;-66
2022/07/08 08:07:44;;;;;;;2.35;0.82;;;;;;;33.11;28.75;102894.66;5016170;28;20037;-67
2022/07/08 08:10:11;;;;;;;2.42;1.02;;;;;;;33.24;28.16;102903.69;5014915;28;20026;-67
2022/07/08 08:12:37;;;;;;;5.82;1.30;;;;;;;33.31;28.17;102900.81;4998682;28;20057;-66
2022/07/08 08:15:03;;;;;;;5.72;0.70;;;;;;;33.22;28.89;102903.06;4998545;28;20142;-66
2022/07/08 08:17:28;;;;;;;5.72;0.68;;;;;;;33.38;27.79;102909.97;4998470;28;20030;-67
2022/07/08 08:19:53;;;;;;;8.63;2.95;;;;;;;33.59;28.70;102912.31;5014635;28;20073;-67
2022/07/08 08:22:19;;;;;;;4.25;0.75;;;;;;;33.60;27.40;102911.25;4998502;28;20041;-67
2022/07/08 08:24:44;;;;;;;6.07;0.82;;;;;;;33.91;27.91;102911.06;5014650;28;20042;-67
2022/07/08 08:27:11;;;;;;;7.70;0.90;;;;;;;34.23;27.87;102906.16;5014774;28;20029;-66
2022/07/08 08:29:36;;;;;;;5.82;1.20;;;;;;;34.16;27.69;102899.00;5014544;28;20049;-66
2022/07/08 08:32:01;;;;;;;6.55;1.27;;;;;;;34.54;27.40;102902.25;5015919;28;20484;-66
2022/07/08 08:34:27;;;;;;;4.18;1.35;;;;;;;34.56;26.98;102897.31;4998302;28;20046;-66
2022/07/08 08:36:52;;;;;;;5.57;1.20;;;;;;;34.49;27.58;102900.19;5014538;28;20030;-66
2022/07/08 08:39:17;;;;;;;4.38;1.13;;;;;;;34.62;27.25;102896.38;5014426;28;20033;-67
2022/07/08 08:41:43;;;;;;;6.68;0.80;;;;;;;34.58;26.69;102892.38;5014743;28;20046;-66
2022/07/08 08:44:09;;;;;;;4.45;0.85;;;;;;;34.36;26.69;102888.44;5015579;28;20046;-66
2022/07/08 08:46:35;;;;;;;6.45;0.82;;;;;;;34.35;27.69;102886.72;5015540;28;20026;-66
2022/07/08 08:49:01;;;;;;;6.72;0.60;;;;;;;34.33;27.19;102883.34;5014271;28;20041;-66
2022/07/08 08:51:27;;;;;;;3.50;0.70;;;;;;;34.45;27.19;102887.00;4998005;28;20033;-67
2022/07/08 08:53:54;;;;;;;6.80;0.90;;;;;;;34.54;26.68;102888.34;5014302;28;20030;-66
2022/07/08 08:56:20;;;;;;;3.72;0.88;;;;;;;34.63;26.23;102884.16;5014270;28;20387;-66
2022/07/08 08:58:46;;;;;;;7.13;1.52;;;;;;;34.63;26.49;102878.59;4997902;28;20034;-66
2022/07/08 09:01:13;;;;;;;6.60;0.98;;;;;;;34.78;27.07;102881.78;5014064;28;20053;-66
2022/07/08 09:03:39;;;;;;;6.85;2.08;;;;;;;34.92;26.62;102877.66;4997771;28;20026;-66
2022/07/08 09:06:05;;;;;;;9.13;2.03;;;;;;;34.83;26.56;102873.53;5013994;28;20391;-66
2022/07/08 09:08:31;;;;;;;4.43;1.15;;;;;;;34.94;25.74;102872.69;5015201;28;20021;-67
2022/07/08 09:10:56;;;;;;;5.13;0.85;;;;;;;34.93;26.81;102862.63;5013991;28;20022;-66
2022/07/08 09:13:25;;;;;;;8.18;1.00;;;;;;;35.03;26.23;102868.47;4997580;28;20034;-67
2022/07/08 09:15:54;;;;;;;5.97;1.10;;;;;;;35.13;26.17;102872.59;5013789;28;20542;-67
2022/07/08 09:18:22;;;;;;;4.38;1.80;;;;;;;35.19;26.02;102875.25;4997367;28;20022;-66
2022/07/08 09:20:49;;;;;;;3.72;0.60;;;;;;;35.30;26.28;102879.13;4997189;28;20377;-67
2022/07/08 09:23:16;;;;;;;2.58;0.57;;;;;;;35.49;25.59;102873.16;5013170;28;20037;-66
2022/07/08 09:25:42;;;;;;;6.03;1.38;;;;;;;35.69;25.48;102878.34;5014791;28;20121;-66
2022/07/08 09:28:08;;;;;;;5.32;0.95;;;;;;;35.74;24.67;102878.47;5014794;28;20487;-67
2022/07/08 09:30:33;;;;;;;3.83;0.63;;;;;;;35.77;25.45;102880.75;5014686;28;20403;-66
2022/07/08 09:33:03;;;;;;;6.13;1.10;;;;;;;35.96;25.29;102879.47;4996992;28;20131;-66
2022/07/08 09:35:36;;;;;;;8.20;1.08;;;;;;;36.27;24.75;102880.13;4997568;28;20103;-67
2022/07/08 09:38:09;;;;;;;6.28;0.82;;;;;;;36.49;24.69;102881.06;4996970;28;20037;-67
2022/07/08 09:40:35;;;;;;;7.93;1.10;;;;;;;36.63;24.58;102876.88;4996872;28;20026;-67
2022/07/08 09:43:02;;;;;;;3.10;0.70;;;;;;;36.74;24.28;102875.97;4980784;28;20029;-67
2022/07/08 09:45:31;;;;;;;6.22;1.40;;;;;;;36.81;24.34;102876.63;4997044;28;20064;-66
2022/07/08 09:48:01;;;;;;;6.72;1.00;;;;;;;36.91;24.33;102879.56;5013451;28;20026;-67
2022/07/08 09:50:52;;;;;;;4.60;0.80;;;;;;;37.07;24.15;102875.97;4996863;28;20395;-67
2022/07/08 09:53:20;;;;;;;6.60;0.90;;;;;;;36.99;24.13;102878.34;4994726;28;20120;-67
2022/07/08 09:55:54;;;;;;;6.05;0.85;;;;;;;37.23;24.61;102863.03;5013110;28;20115;-67
2022/07/08 09:58:23;;;;;;;3.08;0.70;;;;;;;37.31;23.88;102860.66;4996648;28;20535;-66
2022/07/08 10:00:49;;;;;;;1.95;0.82;;;;;;;37.43;24.26;102862.50;5013000;28;20029;-67
2022/07/08 10:03:16;;;;;;;5.95;1.55;;;;;;;37.51;23.71;102862.06;4996503;28;20065;-67
2022/07/08 10:05:42;;;;;;;5.68;0.80;;;;;;;37.78;23.89;102865.75;5012943;28;20034;-66
2022/07/08 10:08:08;;;;;;;7.07;1.48;;;;;;;38.03;23.29;102863.25;5012961;28;20095;-66
2022/07/08 10:10:35;;;;;;;1999.90;999.90;;;;;;;38.37;23.78;102859.16;4996351;28;20044;-66
2022/07/08 10:13:01;;;;;;;1999.90;999.90;;;;;;;39.03;22.80;102857.75;4996613;28;20372;-65
2022/07/08 10:15:28;;;;;;;33.40;31.73;;;;;;;39.81;22.50;102857.91;5013910;28;20017;-65
2022/07/08 10:17:55;;;;;;;2.63;0.85;;;;;;;40.33;21.79;102855.78;5012751;28;20029;-67
2022/07/08 10:20:23;;;;;;;5.60;1.60;;;;;;;40.85;21.20;102869.56;5012586;28;20018;-66
2022/07/08 10:22:51;;;;;;;7.03;1.30;;;;;;;41.43;20.72;102859.66;5013823;28;20108;-67
2022/07/08 10:25:18;;;;;;;6.00;0.88;;;;;;;41.21;21.26;102862.78;4996296;28;20040;-66
2022/07/08 10:27:45;;;;;;;2.25;0.93;;;;;;;40.43;21.99;102867.03;5012564;28;20029;-66
2022/07/08 10:30:18;;;;;;;5.50;1.42;;;;;;;40.34;21.96;102865.94;5012367;28;20080;-65
2022/07/08 10:32:48;;;;;;;3.20;1.63;;;;;;;40.26;22.22;102865.63;5012211;28;20505;-67
2022/07/08 10:35:21;;;;;;;5.53;1.58;;;;;;;40.21;21.89;102874.03;5012043;28;20075;-66
2022/07/08 10:37:55;;;;;;;3.15;1.13;;;;;;;40.26;22.35;102871.25;5012192;28;20384;-65
2022/07/08 10:40:42;;;;;;;6.93;1.38;;;;;;;40.34;21.69;102867.88;5013493;28;20033;-65
2022/07/08 10:43:19;;;;;;;2.58;1.15;;;;;;;40.39;21.08;102859.44;5012192;28;20030;-67
2022/07/08 10:46:00;;;;;;;6.70;2.20;;;;;;;40.46;21.74;102866.47;5013509;28;20022;-66
2022/07/08 10:48:29;;;;;;;4.78;2.05;;;;;;;40.55;21.76;102859.22;5013295;28;20084;-66
2022/07/08 10:50:55;;;;;;;6.25;1.73;;;;;;;40.70;21.76;102844.31;4996340;28;20037;-66
2022/07/08 10:53:20;;;;;;;6.03;1.38;;;;;;;40.95;21.42;102854.69;5013326;28;20040;-66
2022/07/08 10:55:47;;;;;;;5.50;1.80;;;;;;;41.13;21.43;102854.09;5012253;28;20033;-66
2022/07/08 10:58:12;;;;;;;2.17;1.50;;;;;;;41.39;21.28;102852.91;5012215;28;20063;-66
2022/07/08 11:00:39;;;;;;;4.35;1.95;;;;;;;41.27;21.01;102849.53;4995698;28;20480;-66
2022/07/08 11:03:08;;;;;;;4.82;1.50;;;;;;;41.16;21.14;102845.06;5012089;28;20125;-66
2022/07/08 11:05:34;;;;;;;9.18;1.65;;;;;;;40.85;21.46;102841.44;5012174;28;20493;-66
2022/07/08 11:08:18;;;;;;;5.10;0.80;;;;;;;40.41;21.64;102841.19;5012100;28;20029;-66
2022/07/08 11:10:44;;;;;;;5.63;0.82;;;;;;;40.05;21.39;102845.91;5012004;28;20029;-67
2022/07/08 11:13:10;;;;;;;3.17;0.60;;;;;;;39.55;22.10;102849.38;4995654;28;20364;-66
2022/07/08 11:15:36;;;;;;;1.50;0.60;;;;;;;39.21;22.16;102848.09;4995609;28;20026;-66
2022/07/08 11:18:02;;;;;;;1.75;0.80;;;;;;;38.96;22.13;102857.16;4979466;28;20062;-66
2022/07/08 11:20:30;;;;;;;3.67;1.20;;;;;;;38.73;22.71;102862.25;5011904;28;20045;-66
2022/07/08 11:22:55;;;;;;;3.08;0.90;;;;;;;38.49;22.64;102855.34;5011990;28;20030;-66